sensor_id;sensor_type;location;lat;lon;timestamp;P1;durP1;ratioP1;P2;durP2;ratioP2
21804;SDS011;11064;47.102;15.452;2023-05-10T04:01:22;11.43;;;7.72;;
21804;SDS011;11064;47.102;15.452;2023-05-10T04:03:48;10.35;;;7.70;;
21804;SDS011;11064;47.102;15.452;2023-05-10T04:06:13;9.73;;;7.25;;
21804;SDS011;11064;47.102;15.452;2023-05-10T04:08:39;9.93;;;7.57;;
21804;SDS011;11064;47.102;15.452;2023-05-10T04:11:09;11.57;;;7.70;;
21804;SDS011;11064;47.102;15.452;2023-05-10T04:16:01;12.30;;;7.82;;
21804;SDS011;11064;47.102;15.452;2023-05-10T04:18:28;11.63;;;7.32;;
21804;SDS011;11064;47.102;15.452;2023-05-10T04:20:53;14.90;;;7.50;;
21804;SDS011;11064;47.102;15.452;2023-05-10T04:23:19;10.25;;;7.97;;
21804;SDS011;11064;47.102;15.452;2023-05-10T04:25:45;12.38;;;7.43;;
21804;SDS011;11064;47.102;15.452;2023-05-10T04:28:11;9.48;;;6.72;;
21804;SDS011;11064;47.102;15.452;2023-05-10T04:30:36;18.23;;;7.30;;
21804;SDS011;11064;47.102;15.452;2023-05-10T04:33:02;9.70;;;7.07;;
21804;SDS011;11064;47.102;15.452;2023-05-10T04:35:28;10.20;;;7.07;;
21804;SDS011;11064;47.102;15.452;2023-05-10T04:37:54;7.97;;;6.60;;
21804;SDS011;11064;47.102;15.452;2023-05-10T04:40:20;8.40;;;6.35;;
21804;SDS011;11064;47.102;15.452;2023-05-10T04:42:46;9.38;;;5.80;;
21804;SDS011;11064;47.102;15.452;2023-05-10T04:45:11;8.20;;;5.70;;
21804;SDS011;11064;47.102;15.452;2023-05-10T04:47:39;7.38;;;5.65;;
21804;SDS011;11064;47.102;15.452;2023-05-10T04:50:05;6.53;;;4.95;;
21804;SDS011;11064;47.102;15.452;2023-05-10T04:52:32;8.73;;;5.15;;
21804;SDS011;11064;47.102;15.452;2023-05-10T04:54:58;6.20;;;4.57;;
21804;SDS011;11064;47.102;15.452;2023-05-10T04:57:24;4.82;;;3.95;;
21804;SDS011;11064;47.102;15.452;2023-05-10T04:59:50;5.35;;;3.85;;
21804;SDS011;11064;47.102;15.452;2023-05-10T05:02:16;4.75;;;4.13;;
21804;SDS011;11064;47.102;15.452;2023-05-10T05:04:42;5.53;;;4.32;;
21804;SDS011;11064;47.102;15.452;2023-05-10T05:07:07;4.63;;;3.80;;
21804;SDS011;11064;47.102;15.452;2023-05-10T05:09:34;5.70;;;4.13;;
21804;SDS011;11064;47.102;15.452;2023-05-10T05:12:00;6.50;;;4.75;;
21804;SDS011;11064;47.102;15.452;2023-05-10T05:14:26;6.53;;;4.60;;
21804;SDS011;11064;47.102;15.452;2023-05-10T05:16:52;5.20;;;4.50;;
21804;SDS011;11064;47.102;15.452;2023-05-10T05:19:18;6.63;;;4.75;;
21804;SDS011;11064;47.102;15.452;2023-05-10T05:21:44;7.22;;;4.47;;
21804;SDS011;11064;47.102;15.452;2023-05-10T05:24:10;5.93;;;4.53;;
21804;SDS011;11064;47.102;15.452;2023-05-10T05:26:37;6.93;;;4.45;;
21804;SDS011;11064;47.102;15.452;2023-05-10T05:29:03;6.00;;;4.68;;
21804;SDS011;11064;47.102;15.452;2023-05-10T05:31:29;9.48;;;4.65;;
21804;SDS011;11064;47.102;15.452;2023-05-10T05:33:55;6.03;;;4.30;;
21804;SDS011;11064;47.102;15.452;2023-05-10T05:36:21;7.65;;;4.80;;
21804;SDS011;11064;47.102;15.452;2023-05-10T05:38:47;6.57;;;4.50;;
21804;SDS011;11064;47.102;15.452;2023-05-10T05:41:13;5.43;;;4.35;;
21804;SDS011;11064;47.102;15.452;2023-05-10T05:43:39;6.45;;;4.03;;
21804;SDS011;11064;47.102;15.452;2023-05-10T05:46:04;4.65;;;3.90;;
21804;SDS011;11064;47.102;15.452;2023-05-10T05:48:30;6.95;;;4.75;;
21804;SDS011;11064;47.102;15.452;2023-05-10T05:50:56;6.15;;;4.43;;
21804;SDS011;11064;47.102;15.452;2023-05-10T05:53:23;6.88;;;5.15;;
21804;SDS011;11064;47.102;15.452;2023-05-10T05:55:55;8.82;;;5.45;;
21804;SDS011;11064;47.102;15.452;2023-05-10T05:58:23;7.05;;;5.20;;
21804;SDS011;11064;47.102;15.452;2023-05-10T06:00:50;6.00;;;4.65;;
21804;SDS011;11064;47.102;15.452;2023-05-10T06:03:17;6.57;;;4.97;;
21804;SDS011;11064;47.102;15.452;2023-05-10T06:05:43;8.77;;;5.10;;
21804;SDS011;11064;47.102;15.452;2023-05-10T06:08:09;10.60;;;5.38;;
21804;SDS011;11064;47.102;15.452;2023-05-10T06:10:35;9.77;;;5.50;;
21804;SDS011;11064;47.102;15.452;2023-05-10T06:13:01;6.43;;;5.00;;
21804;SDS011;11064;47.102;15.452;2023-05-10T06:15:28;8.57;;;5.10;;
21804;SDS011;11064;47.102;15.452;2023-05-10T06:17:53;6.90;;;5.18;;
21804;SDS011;11064;47.102;15.452;2023-05-10T06:20:19;7.88;;;5.07;;
21804;SDS011;11064;47.102;15.452;2023-05-10T06:22:45;10.73;;;5.53;;
21804;SDS011;11064;47.102;15.452;2023-05-10T06:25:11;6.25;;;4.95;;
21804;SDS011;11064;47.102;15.452;2023-05-10T06:27:37;6.50;;;5.28;;
21804;SDS011;11064;47.102;15.452;2023-05-10T06:30:03;8.23;;;5.20;;
21804;SDS011;11064;47.102;15.452;2023-05-10T06:32:30;8.18;;;5.43;;
21804;SDS011;11064;47.102;15.452;2023-05-10T06:34:56;6.88;;;5.30;;
21804;SDS011;11064;47.102;15.452;2023-05-10T06:37:22;8.02;;;5.53;;
21804;SDS011;11064;47.102;15.452;2023-05-10T06:39:47;6.88;;;5.05;;
21804;SDS011;11064;47.102;15.452;2023-05-10T06:42:13;6.53;;;5.05;;
21804;SDS011;11064;47.102;15.452;2023-05-10T06:44:39;7.00;;;5.10;;
21804;SDS011;11064;47.102;15.452;2023-05-10T06:47:05;7.50;;;5.07;;
21804;SDS011;11064;47.102;15.452;2023-05-10T06:49:30;8.82;;;5.35;;
21804;SDS011;11064;47.102;15.452;2023-05-10T06:51:56;8.38;;;5.50;;
21804;SDS011;11064;47.102;15.452;2023-05-10T06:54:22;6.75;;;5.10;;
21804;SDS011;11064;47.102;15.452;2023-05-10T06:56:48;6.60;;;4.93;;
21804;SDS011;11064;47.102;15.452;2023-05-10T06:59:14;11.55;;;5.15;;
21804;SDS011;11064;47.102;15.452;2023-05-10T07:01:41;7.93;;;5.40;;
21804;SDS011;11064;47.102;15.452;2023-05-10T07:04:08;6.70;;;5.10;;
21804;SDS011;11064;47.102;15.452;2023-05-10T07:06:33;8.00;;;5.18;;
21804;SDS011;11064;47.102;15.452;2023-05-10T07:08:59;9.13;;;5.15;;
21804;SDS011;11064;47.102;15.452;2023-05-10T07:11:25;9.35;;;5.32;;
21804;SDS011;11064;47.102;15.452;2023-05-10T07:13:51;6.25;;;4.88;;
21804;SDS011;11064;47.102;15.452;2023-05-10T07:16:17;6.68;;;5.00;;
21804;SDS011;11064;47.102;15.452;2023-05-10T07:18:43;5.68;;;5.03;;
21804;SDS011;11064;47.102;15.452;2023-05-10T07:21:09;7.38;;;5.25;;
21804;SDS011;11064;47.102;15.452;2023-05-10T07:23:35;6.75;;;5.30;;
21804;SDS011;11064;47.102;15.452;2023-05-10T07:26:01;6.05;;;4.80;;
21804;SDS011;11064;47.102;15.452;2023-05-10T07:28:27;8.65;;;5.10;;
21804;SDS011;11064;47.102;15.452;2023-05-10T07:30:53;7.10;;;4.78;;
21804;SDS011;11064;47.102;15.452;2023-05-10T07:33:18;10.07;;;5.30;;
21804;SDS011;11064;47.102;15.452;2023-05-10T07:35:44;9.35;;;5.18;;
21804;SDS011;11064;47.102;15.452;2023-05-10T07:38:10;6.88;;;5.13;;
21804;SDS011;11064;47.102;15.452;2023-05-10T07:40:36;7.72;;;4.90;;
21804;SDS011;11064;47.102;15.452;2023-05-10T07:43:03;8.65;;;5.35;;
21804;SDS011;11064;47.102;15.452;2023-05-10T07:45:29;5.82;;;4.63;;
21804;SDS011;11064;47.102;15.452;2023-05-10T07:47:55;7.72;;;4.68;;
21804;SDS011;11064;47.102;15.452;2023-05-10T07:50:20;7.88;;;4.90;;
21804;SDS011;11064;47.102;15.452;2023-05-10T07:52:46;7.13;;;5.28;;
21804;SDS011;11064;47.102;15.452;2023-05-10T07:55:13;5.82;;;4.10;;
21804;SDS011;11064;47.102;15.452;2023-05-10T07:57:39;7.15;;;4.70;;
21804;SDS011;11064;47.102;15.452;2023-05-10T08:00:05;7.78;;;5.45;;
21804;SDS011;11064;47.102;15.452;2023-05-10T08:02:34;6.38;;;4.45;;
21804;SDS011;11064;47.102;15.452;2023-05-10T08:05:00;7.05;;;4.43;;
21804;SDS011;11064;47.102;15.452;2023-05-10T08:07:26;5.47;;;4.30;;
21804;SDS011;11064;47.102;15.452;2023-05-10T08:09:52;5.47;;;4.60;;
21804;SDS011;11064;47.102;15.452;2023-05-10T08:12:18;6.30;;;4.97;;
21804;SDS011;11064;47.102;15.452;2023-05-10T08:14:44;5.30;;;4.35;;
21804;SDS011;11064;47.102;15.452;2023-05-10T08:17:10;8.07;;;4.65;;
21804;SDS011;11064;47.102;15.452;2023-05-10T08:19:36;5.95;;;4.32;;
21804;SDS011;11064;47.102;15.452;2023-05-10T08:22:01;8.13;;;4.60;;
21804;SDS011;11064;47.102;15.452;2023-05-10T08:24:27;6.30;;;4.43;;
21804;SDS011;11064;47.102;15.452;2023-05-10T08:26:53;6.35;;;4.28;;
21804;SDS011;11064;47.102;15.452;2023-05-10T08:29:19;5.50;;;4.35;;
21804;SDS011;11064;47.102;15.452;2023-05-10T08:31:45;4.75;;;3.63;;
21804;SDS011;11064;47.102;15.452;2023-05-10T08:34:10;6.20;;;4.35;;
21804;SDS011;11064;47.102;15.452;2023-05-10T08:36:36;6.65;;;4.63;;
21804;SDS011;11064;47.102;15.452;2023-05-10T08:39:02;6.32;;;4.07;;
21804;SDS011;11064;47.102;15.452;2023-05-10T08:41:28;7.65;;;4.50;;
21804;SDS011;11064;47.102;15.452;2023-05-10T08:43:58;7.60;;;4.22;;
21804;SDS011;11064;47.102;15.452;2023-05-10T08:48:56;6.90;;;3.85;;
21804;SDS011;11064;47.102;15.452;2023-05-10T08:51:25;6.30;;;3.80;;
21804;SDS011;11064;47.102;15.452;2023-05-10T08:53:52;6.22;;;4.22;;
21804;SDS011;11064;47.102;15.452;2023-05-10T08:56:18;5.25;;;3.75;;
21804;SDS011;11064;47.102;15.452;2023-05-10T08:58:45;6.07;;;3.67;;
21804;SDS011;11064;47.102;15.452;2023-05-10T09:01:12;4.45;;;3.80;;
21804;SDS011;11064;47.102;15.452;2023-05-10T09:03:40;6.78;;;3.70;;
21804;SDS011;11064;47.102;15.452;2023-05-10T09:06:06;6.38;;;4.25;;
21804;SDS011;11064;47.102;15.452;2023-05-10T09:08:33;5.85;;;3.78;;
21804;SDS011;11064;47.102;15.452;2023-05-10T09:10:59;6.50;;;4.00;;
21804;SDS011;11064;47.102;15.452;2023-05-10T09:13:26;5.25;;;3.78;;
21804;SDS011;11064;47.102;15.452;2023-05-10T09:15:53;5.75;;;4.15;;
21804;SDS011;11064;47.102;15.452;2023-05-10T09:18:19;5.13;;;4.00;;
21804;SDS011;11064;47.102;15.452;2023-05-10T09:20:45;5.07;;;3.80;;
21804;SDS011;11064;47.102;15.452;2023-05-10T09:23:11;5.03;;;4.20;;
21804;SDS011;11064;47.102;15.452;2023-05-10T09:25:36;5.68;;;4.18;;
21804;SDS011;11064;47.102;15.452;2023-05-10T09:28:05;5.63;;;4.28;;
21804;SDS011;11064;47.102;15.452;2023-05-10T09:30:33;4.90;;;3.88;;
21804;SDS011;11064;47.102;15.452;2023-05-10T09:32:59;6.38;;;3.92;;
21804;SDS011;11064;47.102;15.452;2023-05-10T09:35:29;8.80;;;4.20;;
21804;SDS011;11064;47.102;15.452;2023-05-10T09:37:57;4.30;;;3.80;;
21804;SDS011;11064;47.102;15.452;2023-05-10T09:40:29;5.45;;;4.43;;
21804;SDS011;11064;47.102;15.452;2023-05-10T09:43:00;5.47;;;3.90;;
21804;SDS011;11064;47.102;15.452;2023-05-10T09:45:28;6.43;;;4.25;;
21804;SDS011;11064;47.102;15.452;2023-05-10T09:47:55;5.57;;;3.70;;
21804;SDS011;11064;47.102;15.452;2023-05-10T09:50:22;6.63;;;4.00;;
21804;SDS011;11064;47.102;15.452;2023-05-10T09:52:55;5.82;;;4.10;;
21804;SDS011;11064;47.102;15.452;2023-05-10T09:55:26;6.55;;;4.88;;
21804;SDS011;11064;47.102;15.452;2023-05-10T09:58:03;7.47;;;4.20;;
21804;SDS011;11064;47.102;15.452;2023-05-10T10:00:38;6.28;;;4.00;;
21804;SDS011;11064;47.102;15.452;2023-05-10T10:03:06;7.63;;;4.22;;
21804;SDS011;11064;47.102;15.452;2023-05-10T10:05:38;5.78;;;3.97;;
21804;SDS011;11064;47.102;15.452;2023-05-10T10:08:07;5.82;;;4.60;;
21804;SDS011;11064;47.102;15.452;2023-05-10T10:10:33;6.20;;;4.20;;
21804;SDS011;11064;47.102;15.452;2023-05-10T10:12:59;6.10;;;4.00;;
21804;SDS011;11064;47.102;15.452;2023-05-10T10:15:26;6.90;;;4.13;;
21804;SDS011;11064;47.102;15.452;2023-05-10T10:17:52;4.50;;;3.80;;
21804;SDS011;11064;47.102;15.452;2023-05-10T10:20:19;4.95;;;3.63;;
21804;SDS011;11064;47.102;15.452;2023-05-10T10:22:47;6.97;;;4.10;;
21804;SDS011;11064;47.102;15.452;2023-05-10T10:25:13;5.90;;;4.40;;
21804;SDS011;11064;47.102;15.452;2023-05-10T10:36:05;3.08;;;2.78;;
21804;SDS011;11064;47.102;15.452;2023-05-10T10:38:38;6.53;;;3.03;;
21804;SDS011;11064;47.102;15.452;2023-05-10T10:41:31;3.25;;;2.80;;
21804;SDS011;11064;47.102;15.452;2023-05-10T10:49:38;3.90;;;2.50;;
21804;SDS011;11064;47.102;15.452;2023-05-10T10:55:02;4.90;;;2.72;;
21804;SDS011;11064;47.102;15.452;2023-05-10T11:00:31;4.57;;;2.80;;
21804;SDS011;11064;47.102;15.452;2023-05-10T11:05:35;6.25;;;4.10;;
21804;SDS011;11064;47.102;15.452;2023-05-10T11:08:13;5.57;;;3.92;;
21804;SDS011;11064;47.102;15.452;2023-05-10T11:10:49;4.20;;;3.08;;
21804;SDS011;11064;47.102;15.452;2023-05-10T11:13:17;6.82;;;4.07;;
21804;SDS011;11064;47.102;15.452;2023-05-10T11:19:02;8.43;;;3.92;;
21804;SDS011;11064;47.102;15.452;2023-05-10T11:21:29;6.25;;;3.92;;
21804;SDS011;11064;47.102;15.452;2023-05-10T11:23:56;5.82;;;3.85;;
21804;SDS011;11064;47.102;15.452;2023-05-10T11:26:33;9.68;;;3.90;;
21804;SDS011;11064;47.102;15.452;2023-05-10T11:29:00;4.65;;;3.75;;
21804;SDS011;11064;47.102;15.452;2023-05-10T11:31:28;6.18;;;4.30;;
21804;SDS011;11064;47.102;15.452;2023-05-10T11:33:55;9.18;;;5.45;;
21804;SDS011;11064;47.102;15.452;2023-05-10T11:36:29;8.30;;;4.57;;
21804;SDS011;11064;47.102;15.452;2023-05-10T11:38:59;7.70;;;4.55;;
21804;SDS011;11064;47.102;15.452;2023-05-10T11:41:26;9.55;;;5.03;;
21804;SDS011;11064;47.102;15.452;2023-05-10T11:43:53;7.63;;;4.78;;
21804;SDS011;11064;47.102;15.452;2023-05-10T11:46:21;7.30;;;4.35;;
21804;SDS011;11064;47.102;15.452;2023-05-10T11:49:07;6.93;;;4.22;;
21804;SDS011;11064;47.102;15.452;2023-05-10T11:51:34;8.20;;;4.63;;
21804;SDS011;11064;47.102;15.452;2023-05-10T11:54:08;6.15;;;4.30;;
21804;SDS011;11064;47.102;15.452;2023-05-10T11:56:39;8.77;;;4.05;;
21804;SDS011;11064;47.102;15.452;2023-05-10T11:59:05;7.30;;;4.75;;
21804;SDS011;11064;47.102;15.452;2023-05-10T12:01:33;5.20;;;4.35;;
21804;SDS011;11064;47.102;15.452;2023-05-10T12:03:59;6.80;;;4.05;;
21804;SDS011;11064;47.102;15.452;2023-05-10T12:06:26;5.65;;;4.38;;
21804;SDS011;11064;47.102;15.452;2023-05-10T12:08:54;7.13;;;4.68;;
21804;SDS011;11064;47.102;15.452;2023-05-10T12:11:20;6.57;;;4.60;;
21804;SDS011;11064;47.102;15.452;2023-05-10T12:16:17;7.10;;;5.20;;
21804;SDS011;11064;47.102;15.452;2023-05-10T12:18:45;6.25;;;4.72;;
21804;SDS011;11064;47.102;15.452;2023-05-10T12:21:13;10.05;;;4.47;;
21804;SDS011;11064;47.102;15.452;2023-05-10T12:23:40;8.00;;;4.65;;
21804;SDS011;11064;47.102;15.452;2023-05-10T12:26:09;5.80;;;5.07;;
21804;SDS011;11064;47.102;15.452;2023-05-10T12:28:35;6.03;;;5.10;;
21804;SDS011;11064;47.102;15.452;2023-05-10T12:31:02;5.22;;;4.72;;
21804;SDS011;11064;47.102;15.452;2023-05-10T12:33:36;6.32;;;4.63;;
21804;SDS011;11064;47.102;15.452;2023-05-10T12:36:12;5.00;;;4.45;;
21804;SDS011;11064;47.102;15.452;2023-05-10T12:38:43;6.03;;;5.32;;
21804;SDS011;11064;47.102;15.452;2023-05-10T12:41:14;7.32;;;5.38;;
21804;SDS011;11064;47.102;15.452;2023-05-10T12:43:42;6.22;;;5.03;;
21804;SDS011;11064;47.102;15.452;2023-05-10T12:46:08;7.38;;;5.00;;
21804;SDS011;11064;47.102;15.452;2023-05-10T12:48:36;8.60;;;5.10;;
21804;SDS011;11064;47.102;15.452;2023-05-10T12:51:03;6.43;;;5.07;;
21804;SDS011;11064;47.102;15.452;2023-05-10T12:53:30;8.63;;;4.90;;
21804;SDS011;11064;47.102;15.452;2023-05-10T12:55:56;7.28;;;4.78;;
21804;SDS011;11064;47.102;15.452;2023-05-10T12:58:22;8.73;;;5.05;;
21804;SDS011;11064;47.102;15.452;2023-05-10T13:00:48;7.05;;;4.70;;
21804;SDS011;11064;47.102;15.452;2023-05-10T13:03:16;7.18;;;4.63;;
21804;SDS011;11064;47.102;15.452;2023-05-10T13:05:42;5.57;;;4.50;;
21804;SDS011;11064;47.102;15.452;2023-05-10T13:08:08;6.07;;;4.80;;
21804;SDS011;11064;47.102;15.452;2023-05-10T13:10:33;5.45;;;4.65;;
21804;SDS011;11064;47.102;15.452;2023-05-10T13:12:59;6.13;;;4.95;;
21804;SDS011;11064;47.102;15.452;2023-05-10T13:15:25;5.95;;;5.13;;
21804;SDS011;11064;47.102;15.452;2023-05-10T13:17:53;5.38;;;4.60;;
21804;SDS011;11064;47.102;15.452;2023-05-10T13:20:20;8.82;;;5.00;;
21804;SDS011;11064;47.102;15.452;2023-05-10T13:22:46;7.88;;;4.93;;
21804;SDS011;11064;47.102;15.452;2023-05-10T13:25:12;5.65;;;4.60;;
21804;SDS011;11064;47.102;15.452;2023-05-10T13:27:39;8.70;;;5.07;;
21804;SDS011;11064;47.102;15.452;2023-05-10T13:30:06;7.05;;;4.90;;
21804;SDS011;11064;47.102;15.452;2023-05-10T13:32:32;5.60;;;5.10;;
21804;SDS011;11064;47.102;15.452;2023-05-10T13:34:58;4.93;;;4.43;;
21804;SDS011;11064;47.102;15.452;2023-05-10T13:37:24;7.28;;;4.55;;
21804;SDS011;11064;47.102;15.452;2023-05-10T13:39:50;5.53;;;4.38;;
21804;SDS011;11064;47.102;15.452;2023-05-10T13:42:17;4.85;;;4.30;;
21804;SDS011;11064;47.102;15.452;2023-05-10T13:44:43;10.77;;;6.95;;
21804;SDS011;11064;47.102;15.452;2023-05-10T13:47:09;15.10;;;8.55;;
21804;SDS011;11064;47.102;15.452;2023-05-10T13:49:35;8.85;;;6.00;;
21804;SDS011;11064;47.102;15.452;2023-05-10T13:52:01;7.80;;;4.70;;
21804;SDS011;11064;47.102;15.452;2023-05-10T13:57:00;4.15;;;3.75;;
21804;SDS011;11064;47.102;15.452;2023-05-10T13:59:26;7.65;;;4.80;;
21804;SDS011;11064;47.102;15.452;2023-05-10T14:01:52;5.60;;;4.80;;
21804;SDS011;11064;47.102;15.452;2023-05-10T14:04:18;6.30;;;4.50;;
21804;SDS011;11064;47.102;15.452;2023-05-10T14:06:44;5.68;;;4.95;;
21804;SDS011;11064;47.102;15.452;2023-05-10T14:09:10;5.57;;;4.80;;
21804;SDS011;11064;47.102;15.452;2023-05-10T14:11:35;5.55;;;4.80;;
21804;SDS011;11064;47.102;15.452;2023-05-10T14:14:01;6.00;;;4.53;;
21804;SDS011;11064;47.102;15.452;2023-05-10T14:16:27;6.28;;;4.68;;
21804;SDS011;11064;47.102;15.452;2023-05-10T14:18:53;4.93;;;4.20;;
21804;SDS011;11064;47.102;15.452;2023-05-10T14:21:19;6.35;;;4.15;;
21804;SDS011;11064;47.102;15.452;2023-05-10T14:23:44;7.30;;;4.10;;
21804;SDS011;11064;47.102;15.452;2023-05-10T14:26:10;8.10;;;4.60;;
21804;SDS011;11064;47.102;15.452;2023-05-10T14:28:36;6.15;;;4.38;;
21804;SDS011;11064;47.102;15.452;2023-05-10T14:31:02;6.00;;;4.00;;
21804;SDS011;11064;47.102;15.452;2023-05-10T14:33:28;5.78;;;4.00;;
21804;SDS011;11064;47.102;15.452;2023-05-10T14:35:53;7.20;;;4.95;;
21804;SDS011;11064;47.102;15.452;2023-05-10T14:38:22;4.90;;;4.22;;
21804;SDS011;11064;47.102;15.452;2023-05-10T14:40:48;4.45;;;4.00;;
21804;SDS011;11064;47.102;15.452;2023-05-10T14:43:14;5.35;;;4.25;;
21804;SDS011;11064;47.102;15.452;2023-05-10T14:45:40;5.35;;;4.10;;
21804;SDS011;11064;47.102;15.452;2023-05-10T14:48:06;4.55;;;4.00;;
21804;SDS011;11064;47.102;15.452;2023-05-10T14:50:36;4.60;;;4.20;;
21804;SDS011;11064;47.102;15.452;2023-05-10T14:53:01;5.93;;;4.75;;
21804;SDS011;11064;47.102;15.452;2023-05-10T14:55:27;4.53;;;4.00;;
21804;SDS011;11064;47.102;15.452;2023-05-10T14:57:54;4.90;;;4.40;;
21804;SDS011;11064;47.102;15.452;2023-05-10T15:00:19;4.82;;;4.32;;
21804;SDS011;11064;47.102;15.452;2023-05-10T15:02:45;5.90;;;4.18;;
21804;SDS011;11064;47.102;15.452;2023-05-10T15:05:12;6.68;;;4.38;;
21804;SDS011;11064;47.102;15.452;2023-05-10T15:07:38;5.70;;;4.07;;
21804;SDS011;11064;47.102;15.452;2023-05-10T15:10:04;5.72;;;3.97;;
21804;SDS011;11064;47.102;15.452;2023-05-10T15:12:31;4.72;;;4.07;;
21804;SDS011;11064;47.102;15.452;2023-05-10T15:14:56;4.97;;;4.38;;
21804;SDS011;11064;47.102;15.452;2023-05-10T15:17:22;5.78;;;4.10;;
21804;SDS011;11064;47.102;15.452;2023-05-10T15:19:48;5.25;;;4.40;;
21804;SDS011;11064;47.102;15.452;2023-05-10T15:22:14;7.57;;;4.22;;
21804;SDS011;11064;47.102;15.452;2023-05-10T15:24:40;6.28;;;3.97;;
21804;SDS011;11064;47.102;15.452;2023-05-10T15:27:06;6.00;;;3.67;;
21804;SDS011;11064;47.102;15.452;2023-05-10T15:29:32;4.68;;;3.95;;
21804;SDS011;11064;47.102;15.452;2023-05-10T15:31:59;4.88;;;4.15;;
21804;SDS011;11064;47.102;15.452;2023-05-10T15:34:27;4.97;;;4.47;;
21804;SDS011;11064;47.102;15.452;2023-05-10T15:36:53;5.85;;;4.35;;
21804;SDS011;11064;47.102;15.452;2023-05-10T15:39:19;5.88;;;4.18;;
21804;SDS011;11064;47.102;15.452;2023-05-10T15:41:45;4.68;;;4.10;;
21804;SDS011;11064;47.102;15.452;2023-05-10T15:44:10;5.82;;;4.63;;
21804;SDS011;11064;47.102;15.452;2023-05-10T15:46:36;5.35;;;4.20;;
21804;SDS011;11064;47.102;15.452;2023-05-10T15:49:02;6.60;;;4.00;;
21804;SDS011;11064;47.102;15.452;2023-05-10T15:51:29;5.07;;;4.40;;
21804;SDS011;11064;47.102;15.452;2023-05-10T15:53:54;7.10;;;4.20;;
21804;SDS011;11064;47.102;15.452;2023-05-10T15:56:21;5.20;;;4.70;;
21804;SDS011;11064;47.102;15.452;2023-05-10T15:58:47;5.13;;;4.57;;
21804;SDS011;11064;47.102;15.452;2023-05-10T16:01:13;7.00;;;4.45;;
21804;SDS011;11064;47.102;15.452;2023-05-10T16:03:38;4.38;;;3.97;;
21804;SDS011;11064;47.102;15.452;2023-05-10T16:06:04;4.13;;;3.72;;
21804;SDS011;11064;47.102;15.452;2023-05-10T16:08:30;5.47;;;4.18;;
21804;SDS011;11064;47.102;15.452;2023-05-10T16:10:58;7.68;;;4.20;;
21804;SDS011;11064;47.102;15.452;2023-05-10T16:13:24;4.45;;;4.05;;
21804;SDS011;11064;47.102;15.452;2023-05-10T16:15:50;5.07;;;4.22;;
21804;SDS011;11064;47.102;15.452;2023-05-10T16:18:16;5.22;;;4.55;;
21804;SDS011;11064;47.102;15.452;2023-05-10T16:20:42;5.85;;;4.18;;
21804;SDS011;11064;47.102;15.452;2023-05-10T16:23:08;4.40;;;4.00;;
21804;SDS011;11064;47.102;15.452;2023-05-10T16:25:35;7.78;;;4.65;;
21804;SDS011;11064;47.102;15.452;2023-05-10T16:28:01;6.10;;;4.70;;
21804;SDS011;11064;47.102;15.452;2023-05-10T16:30:27;6.40;;;4.93;;
21804;SDS011;11064;47.102;15.452;2023-05-10T16:32:58;14.18;;;6.40;;
21804;SDS011;11064;47.102;15.452;2023-05-10T16:35:25;5.57;;;4.80;;
21804;SDS011;11064;47.102;15.452;2023-05-10T16:37:51;7.38;;;4.90;;
21804;SDS011;11064;47.102;15.452;2023-05-10T16:40:17;5.85;;;4.63;;
21804;SDS011;11064;47.102;15.452;2023-05-10T16:42:43;6.03;;;4.85;;
21804;SDS011;11064;47.102;15.452;2023-05-10T16:45:10;7.72;;;4.85;;
21804;SDS011;11064;47.102;15.452;2023-05-10T16:47:37;6.07;;;5.13;;
21804;SDS011;11064;47.102;15.452;2023-05-10T16:50:04;5.68;;;4.93;;
21804;SDS011;11064;47.102;15.452;2023-05-10T16:52:31;5.13;;;4.57;;
21804;SDS011;11064;47.102;15.452;2023-05-10T16:54:58;5.80;;;5.20;;
21804;SDS011;11064;47.102;15.452;2023-05-10T16:57:24;6.20;;;4.70;;
21804;SDS011;11064;47.102;15.452;2023-05-10T16:59:50;6.60;;;5.30;;
21804;SDS011;11064;47.102;15.452;2023-05-10T17:02:17;5.68;;;4.43;;
21804;SDS011;11064;47.102;15.452;2023-05-10T17:04:44;8.07;;;5.43;;
21804;SDS011;11064;47.102;15.452;2023-05-10T17:07:09;6.63;;;5.00;;
21804;SDS011;11064;47.102;15.452;2023-05-10T17:09:37;5.50;;;4.72;;
21804;SDS011;11064;47.102;15.452;2023-05-10T17:12:06;5.10;;;4.25;;
21804;SDS011;11064;47.102;15.452;2023-05-10T17:14:32;6.18;;;4.30;;
21804;SDS011;11064;47.102;15.452;2023-05-10T17:16:58;5.20;;;4.68;;
21804;SDS011;11064;47.102;15.452;2023-05-10T17:19:24;4.75;;;4.25;;
21804;SDS011;11064;47.102;15.452;2023-05-10T17:21:50;6.15;;;3.90;;
21804;SDS011;11064;47.102;15.452;2023-05-10T17:24:16;4.32;;;3.90;;
21804;SDS011;11064;47.102;15.452;2023-05-10T17:26:43;4.03;;;3.67;;
21804;SDS011;11064;47.102;15.452;2023-05-10T17:29:09;7.82;;;3.95;;
21804;SDS011;11064;47.102;15.452;2023-05-10T17:31:35;4.50;;;4.05;;
21804;SDS011;11064;47.102;15.452;2023-05-10T17:34:01;4.63;;;4.18;;
21804;SDS011;11064;47.102;15.452;2023-05-10T17:36:27;4.07;;;3.65;;
21804;SDS011;11064;47.102;15.452;2023-05-10T17:38:53;4.85;;;3.42;;
21804;SDS011;11064;47.102;15.452;2023-05-10T17:41:19;3.92;;;3.53;;
21804;SDS011;11064;47.102;15.452;2023-05-10T17:43:45;5.38;;;3.50;;
21804;SDS011;11064;47.102;15.452;2023-05-10T17:46:11;4.63;;;3.70;;
21804;SDS011;11064;47.102;15.452;2023-05-10T17:48:37;3.83;;;3.40;;
21804;SDS011;11064;47.102;15.452;2023-05-10T17:51:03;4.90;;;3.35;;
21804;SDS011;11064;47.102;15.452;2023-05-10T17:53:29;4.57;;;3.70;;
21804;SDS011;11064;47.102;15.452;2023-05-10T17:55:55;4.22;;;3.60;;
21804;SDS011;11064;47.102;15.452;2023-05-10T17:58:23;4.72;;;3.70;;
21804;SDS011;11064;47.102;15.452;2023-05-10T18:00:50;4.40;;;3.40;;
21804;SDS011;11064;47.102;15.452;2023-05-10T18:03:16;5.47;;;3.55;;
21804;SDS011;11064;47.102;15.452;2023-05-10T18:05:42;4.68;;;3.63;;
21804;SDS011;11064;47.102;15.452;2023-05-10T18:08:09;4.13;;;3.25;;
21804;SDS011;11064;47.102;15.452;2023-05-10T18:10:35;3.50;;;3.20;;
21804;SDS011;11064;47.102;15.452;2023-05-10T18:13:01;5.32;;;3.53;;
21804;SDS011;11064;47.102;15.452;2023-05-10T18:15:29;3.55;;;3.25;;
21804;SDS011;11064;47.102;15.452;2023-05-10T18:18:03;3.90;;;3.50;;
21804;SDS011;11064;47.102;15.452;2023-05-10T18:20:29;4.83;;;3.80;;
21804;SDS011;11064;47.102;15.452;2023-05-10T18:22:55;3.55;;;3.25;;
21804;SDS011;11064;47.102;15.452;2023-05-10T18:25:22;4.45;;;3.20;;
21804;SDS011;11064;47.102;15.452;2023-05-10T18:27:49;3.53;;;3.20;;
21804;SDS011;11064;47.102;15.452;2023-05-10T18:30:15;4.40;;;3.10;;
21804;SDS011;11064;47.102;15.452;2023-05-10T18:32:41;4.15;;;3.30;;
21804;SDS011;11064;47.102;15.452;2023-05-10T18:35:07;3.42;;;3.13;;
21804;SDS011;11064;47.102;15.452;2023-05-10T18:37:33;3.90;;;3.25;;
21804;SDS011;11064;47.102;15.452;2023-05-10T18:39:59;3.70;;;2.88;;
21804;SDS011;11064;47.102;15.452;2023-05-10T18:42:25;4.18;;;3.17;;
21804;SDS011;11064;47.102;15.452;2023-05-10T18:44:52;4.32;;;3.33;;
21804;SDS011;11064;47.102;15.452;2023-05-10T18:47:18;4.22;;;3.13;;
21804;SDS011;11064;47.102;15.452;2023-05-10T18:49:44;3.17;;;2.88;;
21804;SDS011;11064;47.102;15.452;2023-05-10T18:52:10;3.97;;;3.33;;
21804;SDS011;11064;47.102;15.452;2023-05-10T18:54:37;5.57;;;3.05;;
21804;SDS011;11064;47.102;15.452;2023-05-10T18:57:03;4.72;;;3.15;;
21804;SDS011;11064;47.102;15.452;2023-05-10T18:59:29;3.30;;;2.85;;
21804;SDS011;11064;47.102;15.452;2023-05-10T19:01:55;3.72;;;3.33;;
21804;SDS011;11064;47.102;15.452;2023-05-10T19:04:21;4.72;;;3.70;;
21804;SDS011;11064;47.102;15.452;2023-05-10T19:06:47;3.80;;;3.50;;